Barton City, MI (48705)

1:29 AM EDT on May 07, 2015 (GMT -0400)
RAWS | | Change Station
CLOSE
Current Station
Personal Weather Station
Location: Barton City, MI
Elevation: 833 ft
Nearby Weather Stations

Elev 833 ft 44.66 °N, 83.59 °W | Updated 43 minutes ago

Clear
Clear
48 °F
Feels Like 48 °F
N
2
Wind Variable Wind from South
Gusts 4.0 mph

Today
High -- | Low -- °F
--% Chance of Precip.
Yesterday
High -- | Low -- °F
Precip. -- in
6:16 AM 8:46 PM
Waning Gibbous, 90% visible
Pressure 30.18 in
Visibility 10.0 miles
Clouds Clear
Windchill 48 °F
Dew Point 42 °F
Humidity 81%
Rainfall in
Snow Depth Not available.
UV 0 out of 12
Pollen 10.60 out of 12
Air Quality Not available.
Flu Activity Regional
METAR KOSC 070513Z AUTO 00000KT 10SM CLR 07/04 A3018 RMK AO2 T00710045

More Conditions Fewer Conditions

Pressure 30.18 in
Visibility 10.0 miles
Clouds Clear
Windchill 48 °F
Dew Point 42 °F
Humidity 81%
Rainfall in
Snow Depth Not available.
UV 0 out of 12
Pollen 10.60 out of 12
Air Quality Not available.
Flu Activity Regional
METAR KOSC 070513Z AUTO 00000KT 10SM CLR 07/04 A3018 RMK AO2 T00710045

More Conditions Fewer Conditions

Nowcast | as of 1:00 am EDT on May 7, 2015

At 2 am...partly cloudy. Patchy fog. Temperature 46. Light winds. At 4 am...partly cloudy. Patchy fog. Temperature 46. Light winds. At 6 am...patchy fog. Temperature 47. Light winds. At 8 am...partly cloudy. Patchy fog. Temperature 50. Light winds.

×

10-Day Weather Forecast

Almanac

Astronomy

May. 07, 2015 Rise Set
Actual Time
Civil Twilight
Nautical Twilight
Astronomical Twilight
Moon
Length of Visible Light
Length of Day
Tomorrow will be .
, % of the Moon is Illuminated

Today's Extremes

State Highs State Lows

Community

WunderPhotos

Upload Photos

1,819,126 photos uploaded!

WunderBlogs® & News

Nearby

Air Quality

  Air Quality AQ Index Pollutant
Not available.

Snow Depth

Station Depth Elevation

Earthquake Activity

City Distance Mag. Time & Date
Minimum magnitude displayed is 2.5.

Coastal Water Temperatures

Place Temperature

Stations

Nearby Weather Stations

Station Location Temp. Windchill Dew Point Humidity Wind Precip. Elev Updated Type